Time;durP1;ratioP1;P1;durP2;ratioP2;P2;SDS_P1;SDS_P2;PMS_P1;PMS_P2;Temp;Humidity;BMP_temperature;BMP_pressure;BME280_temperature;BME280_humidity;BME280_pressure;Samples;Min_cycle;Max_cycle;Signal;HPM_P1;HPM_P2
2024/03/21 00:00:34;;;;;;;39.70;32.15;;;11.70;99.90;;;;;;5021779;28;20383;-80
2024/03/21 00:03:00;;;;;;;41.38;33.05;;;11.80;99.90;;;;;;5031181;28;20473;-80
2024/03/21 00:05:26;;;;;;;38.95;32.58;;;11.80;99.90;;;;;;5040399;28;20030;-80
2024/03/21 00:07:52;;;;;;;40.70;32.42;;;11.80;99.90;;;;;;5031998;28;20048;-80
2024/03/21 00:10:19;;;;;;;37.05;29.95;;;11.80;99.90;;;;;;5022070;28;20026;-80
2024/03/21 00:12:45;;;;;;;39.63;32.72;;;11.70;99.90;;;;;;5032311;28;20029;-80
2024/03/21 00:15:12;;;;;;;42.25;33.78;;;11.70;99.90;;;;;;5029746;28;20018;-80
2024/03/21 00:17:38;;;;;;;46.80;33.85;;;11.80;99.90;;;;;;5034219;28;20029;-80
2024/03/21 00:20:10;;;;;;;43.38;33.97;;;11.70;99.90;;;;;;5036480;28;20154;-80
2024/03/21 00:22:40;;;;;;;45.67;34.75;;;11.70;99.90;;;;;;5045852;28;20017;-80
2024/03/21 00:25:07;;;;;;;42.10;32.97;;;11.70;99.90;;;;;;5033670;28;20025;-80
2024/03/21 00:27:34;;;;;;;45.10;33.58;;;11.70;99.90;;;;;;5045714;28;20025;-80
2024/03/21 00:30:01;;;;;;;44.58;36.17;;;11.70;99.90;;;;;;5028576;28;20075;-80
2024/03/21 00:32:26;;;;;;;45.78;35.25;;;11.70;99.90;;;;;;5043069;28;20059;-80
2024/03/21 00:34:52;;;;;;;48.85;36.58;;;11.70;99.90;;;;;;5042438;28;20492;-80
2024/03/21 00:37:18;;;;;;;48.72;37.45;;;11.70;99.90;;;;;;5027610;28;20034;-80
2024/03/21 00:39:45;;;;;;;53.08;38.80;;;11.60;99.90;;;;;;5033181;28;20056;-80
2024/03/21 00:42:11;;;;;;;50.85;39.35;;;11.70;99.90;;;;;;5024396;28;20026;-80
2024/03/21 00:44:37;;;;;;;51.17;37.75;;;11.70;99.90;;;;;;5044769;28;20017;-80
2024/03/21 00:47:03;;;;;;;49.17;39.17;;;11.70;99.90;;;;;;5043492;28;20079;-80
2024/03/21 00:49:29;;;;;;;50.25;37.25;;;11.70;99.90;;;;;;5033959;28;20041;-80
2024/03/21 00:51:56;;;;;;;52.45;40.83;;;11.70;99.90;;;;;;5043626;28;20036;-80
2024/03/21 00:54:22;;;;;;;52.05;37.63;;;11.70;99.90;;;;;;5044446;28;20025;-80
2024/03/21 00:56:48;;;;;;;53.53;38.80;;;11.70;99.90;;;;;;5043165;28;20068;-80
2024/03/21 00:59:14;;;;;;;57.55;42.58;;;11.70;99.90;;;;;;5044725;28;20033;-80
2024/03/21 01:01:40;;;;;;;57.05;43.80;;;11.70;99.90;;;;;;5024419;28;20389;-80
2024/03/21 01:04:07;;;;;;;62.42;44.03;;;11.70;99.90;;;;;;5035554;28;20029;-80
2024/03/21 01:06:33;;;;;;;57.85;41.95;;;11.70;99.90;;;;;;5032442;28;20511;-80
2024/03/21 01:08:59;;;;;;;59.25;44.20;;;11.70;99.90;;;;;;5035735;28;20033;-80
2024/03/21 01:11:25;;;;;;;56.85;42.35;;;11.70;99.90;;;;;;5041845;28;20032;-80
2024/03/21 01:13:50;;;;;;;64.57;45.20;;;11.70;99.90;;;;;;5026850;28;20036;-80
2024/03/21 01:16:16;;;;;;;60.28;44.83;;;11.60;99.90;;;;;;5042334;28;20040;-80
2024/03/21 01:18:42;;;;;;;57.05;42.13;;;11.60;99.90;;;;;;5044274;28;20397;-80
2024/03/21 01:21:08;;;;;;;60.53;46.45;;;11.60;99.90;;;;;;5043007;28;20100;-80
2024/03/21 01:23:35;;;;;;;61.67;47.20;;;11.60;99.90;;;;;;5043191;28;20432;-80
2024/03/21 01:26:01;;;;;;;63.72;46.20;;;11.60;99.90;;;;;;5033716;28;20649;-77
2024/03/21 01:28:27;;;;;;;64.53;48.45;;;11.50;99.90;;;;;;5042312;28;20049;-77
2024/03/21 01:30:54;;;;;;;64.50;47.33;;;11.60;99.90;;;;;;5034109;28;20114;-77
2024/03/21 01:33:23;;;;;;;63.38;49.40;;;11.50;99.90;;;;;;5042782;28;20572;-77
2024/03/21 01:35:49;;;;;;;65.03;49.15;;;11.50;99.90;;;;;;5034975;28;20500;-80
2024/03/21 01:38:15;;;;;;;66.35;49.63;;;11.50;99.90;;;;;;5027764;28;20378;-79
2024/03/21 01:40:41;;;;;;;64.95;48.92;;;11.60;99.90;;;;;;5024207;28;20032;-79
2024/03/21 01:43:24;;;;;;;69.45;52.45;;;11.60;99.90;;;;;;5041832;28;20025;-80
2024/03/21 01:46:12;;;;;;;69.80;50.92;;;11.60;99.90;;;;;;5025898;28;20432;-80
2024/03/21 01:48:39;;;;;;;72.43;52.78;;;11.50;99.90;;;;;;5032270;28;20047;-80
2024/03/21 01:51:06;;;;;;;69.40;51.40;;;11.50;99.90;;;;;;5041152;28;20017;-80
2024/03/21 01:53:35;;;;;;;74.25;53.85;;;11.50;99.90;;;;;;5041415;28;20036;-80
2024/03/21 01:56:01;;;;;;;74.00;54.65;;;11.60;99.90;;;;;;5044273;28;20021;-80
2024/03/21 01:58:27;;;;;;;68.93;51.65;;;11.50;99.90;;;;;;5031689;28;20037;-80
2024/03/21 02:00:54;;;;;;;71.90;52.50;;;11.60;99.90;;;;;;5034804;28;20029;-80
2024/03/21 02:03:20;;;;;;;73.45;52.63;;;11.60;99.90;;;;;;5027514;28;20046;-80
2024/03/21 02:05:46;;;;;;;71.78;52.33;;;11.50;99.90;;;;;;5026311;28;20385;-77
2024/03/21 02:08:12;;;;;;;67.20;49.85;;;11.50;99.90;;;;;;5041233;28;20018;-80
2024/03/21 02:10:38;;;;;;;69.30;51.55;;;11.50;99.90;;;;;;5043508;28;20031;-80
2024/03/21 02:13:05;;;;;;;71.65;52.10;;;11.50;99.90;;;;;;5041559;28;20033;-80
2024/03/21 02:15:31;;;;;;;74.82;52.40;;;11.40;99.90;;;;;;5033242;28;20112;-80
2024/03/21 02:17:58;;;;;;;70.63;52.47;;;11.40;99.90;;;;;;5034292;28;20025;-80
2024/03/21 02:20:24;;;;;;;71.82;50.33;;;11.40;99.90;;;;;;5042438;28;20078;-80
2024/03/21 02:22:50;;;;;;;74.72;54.83;;;11.40;99.90;;;;;;5045733;28;20021;-80
2024/03/21 02:25:16;;;;;;;72.55;54.65;;;11.40;99.90;;;;;;5033311;28;20113;-80
2024/03/21 02:27:42;;;;;;;70.10;52.63;;;11.30;99.90;;;;;;5041422;28;20018;-80
2024/03/21 02:30:10;;;;;;;70.90;52.55;;;11.20;99.90;;;;;;5033839;28;20025;-80
2024/03/21 02:32:37;;;;;;;77.95;55.22;;;11.20;99.90;;;;;;5023012;28;20037;-80
2024/03/21 02:35:04;;;;;;;76.57;53.38;;;11.30;99.90;;;;;;5043358;28;20051;-80
2024/03/21 02:37:30;;;;;;;71.85;52.13;;;11.30;99.90;;;;;;5030814;28;20040;-80
2024/03/21 02:39:55;;;;;;;69.60;50.72;;;11.30;99.90;;;;;;5025574;28;20029;-80
2024/03/21 02:42:21;;;;;;;75.90;52.80;;;11.30;99.90;;;;;;5039993;28;20025;-80
2024/03/21 02:44:48;;;;;;;65.82;49.30;;;11.30;99.90;;;;;;5043126;28;20029;-80
2024/03/21 02:47:15;;;;;;;72.38;52.08;;;11.30;99.90;;;;;;5030491;28;20067;-80
2024/03/21 02:49:41;;;;;;;70.93;54.10;;;11.30;99.90;;;;;;5033231;28;20052;-80
2024/03/21 02:52:07;;;;;;;71.40;54.05;;;11.30;99.90;;;;;;5041047;28;20538;-80
2024/03/21 02:54:33;;;;;;;70.22;54.10;;;11.20;99.90;;;;;;5042090;28;20072;-80
2024/03/21 02:56:59;;;;;;;67.45;52.25;;;11.20;99.90;;;;;;5041464;28;20017;-77
2024/03/21 02:59:25;;;;;;;73.07;52.80;;;11.10;99.90;;;;;;5041389;28;20065;-77
2024/03/21 03:01:52;;;;;;;69.20;50.38;;;11.10;99.90;;;;;;5032411;28;20048;-77
2024/03/21 03:04:17;;;;;;;67.05;50.70;;;11.10;99.90;;;;;;5040924;28;20022;-77
2024/03/21 03:06:43;;;;;;;71.10;50.97;;;11.10;99.90;;;;;;5024649;28;20021;-77
2024/03/21 03:09:09;;;;;;;69.43;49.88;;;11.00;99.90;;;;;;5040042;28;20029;-77
2024/03/21 03:11:38;;;;;;;67.05;51.20;;;11.00;99.90;;;;;;5043386;28;20031;-78
2024/03/21 03:14:07;;;;;;;68.88;49.40;;;11.10;99.90;;;;;;5039821;28;20053;-80
2024/03/21 03:16:33;;;;;;;67.05;49.67;;;11.10;99.90;;;;;;5042881;28;20090;-80
2024/03/21 03:19:00;;;;;;;65.50;48.85;;;11.00;99.90;;;;;;5030112;28;20026;-80
2024/03/21 03:21:26;;;;;;;67.32;50.33;;;11.00;99.90;;;;;;5039558;28;20029;-80
2024/03/21 03:23:52;;;;;;;65.43;48.70;;;10.90;99.90;;;;;;5043105;28;20013;-80
2024/03/21 03:26:17;;;;;;;61.15;44.53;;;10.80;99.90;;;;;;5030250;28;20026;-80
2024/03/21 03:28:43;;;;;;;55.58;42.70;;;10.80;99.90;;;;;;5043074;28;21287;-80
2024/03/21 03:31:09;;;;;;;61.08;45.63;;;10.80;99.90;;;;;;5043090;28;20048;-80
2024/03/21 03:36:19;;;;;;;59.78;44.97;;;10.80;99.90;;;;;;5041055;28;20163;-80
2024/03/21 03:38:45;;;;;;;65.30;43.65;;;10.80;99.90;;;;;;5033109;28;20492;-80
2024/03/21 03:41:10;;;;;;;55.13;41.38;;;10.80;99.90;;;;;;5029253;28;20390;-80
2024/03/21 03:43:36;;;;;;;60.72;43.03;;;10.90;99.90;;;;;;5039739;28;20031;-79
2024/03/21 03:46:02;;;;;;;54.95;39.75;;;10.90;99.90;;;;;;5032794;28;20034;-80
2024/03/21 03:48:28;;;;;;;54.35;38.60;;;11.00;99.90;;;;;;5042292;28;20083;-80
2024/03/21 03:50:53;;;;;;;54.28;39.55;;;11.00;99.90;;;;;;5023758;28;20564;-80
2024/03/21 03:53:19;;;;;;;54.20;39.28;;;11.00;99.90;;;;;;5025723;28;20480;-80
2024/03/21 03:55:45;;;;;;;52.75;39.22;;;11.00;99.90;;;;;;5044836;28;20021;-81
2024/03/21 03:58:11;;;;;;;56.08;39.88;;;11.00;99.90;;;;;;5035573;28;20031;-80
2024/03/21 04:00:39;;;;;;;61.00;41.13;;;11.00;99.90;;;;;;5026053;28;20083;-80
2024/03/21 04:03:05;;;;;;;53.05;40.00;;;11.10;99.90;;;;;;5045709;28;20525;-80
2024/03/21 04:05:31;;;;;;;51.95;38.90;;;11.10;99.90;;;;;;5043538;28;20101;-80
2024/03/21 04:07:57;;;;;;;51.85;39.33;;;11.00;99.90;;;;;;5028372;28;20025;-80
2024/03/21 04:10:23;;;;;;;52.35;38.53;;;11.00;99.90;;;;;;5042752;28;20272;-80
2024/03/21 04:12:48;;;;;;;49.85;36.42;;;11.00;99.90;;;;;;5042775;28;20029;-80
2024/03/21 04:15:14;;;;;;;50.15;35.58;;;10.90;99.90;;;;;;5024961;28;20028;-80
2024/03/21 04:17:40;;;;;;;49.55;38.13;;;10.80;99.90;;;;;;5045700;28;20029;-80
2024/03/21 04:20:06;;;;;;;47.63;37.50;;;10.80;99.90;;;;;;5046098;28;20164;-80
2024/03/21 04:22:33;;;;;;;52.90;39.10;;;10.70;99.90;;;;;;5035399;28;20053;-80
2024/03/21 04:24:59;;;;;;;50.40;39.10;;;10.70;99.90;;;;;;5034253;28;20481;-80
2024/03/21 04:27:24;;;;;;;47.20;36.85;;;10.70;99.90;;;;;;5044419;28;20053;-80
2024/03/21 04:29:50;;;;;;;45.17;36.83;;;10.60;99.90;;;;;;5044443;28;20123;-80
2024/03/21 04:32:17;;;;;;;49.88;38.40;;;10.50;99.90;;;;;;5043583;28;20025;-80
2024/03/21 04:34:43;;;;;;;49.85;37.97;;;10.50;99.90;;;;;;5046013;28;20029;-80
2024/03/21 04:37:17;;;;;;;49.33;37.65;;;;;;;;;;5035525;28;20029;-80
2024/03/21 04:39:46;;;;;;;46.15;35.55;;;10.30;99.90;;;;;;5043593;28;20037;-80
2024/03/21 04:42:14;;;;;;;51.38;38.50;;;10.30;99.90;;;;;;5034455;28;20017;-80
2024/03/21 04:44:43;;;;;;;50.92;39.03;;;10.20;99.90;;;;;;5034108;28;20021;-80
2024/03/21 04:47:12;;;;;;;51.45;38.28;;;10.10;99.90;;;;;;5034458;28;20554;-80
2024/03/21 04:49:41;;;;;;;53.80;39.65;;;10.10;99.90;;;;;;5044088;28;20068;-80
2024/03/21 04:52:08;;;;;;;51.40;38.42;;;10.00;99.90;;;;;;5033921;28;20037;-80
2024/03/21 04:54:34;;;;;;;51.33;37.03;;;10.20;99.90;;;;;;5043648;28;20112;-80
2024/03/21 04:57:00;;;;;;;52.03;33.78;;;10.20;99.90;;;;;;5034508;28;20167;-80
2024/03/21 04:59:27;;;;;;;46.25;37.00;;;10.30;99.90;;;;;;5033415;28;20108;-80
2024/03/21 05:01:53;;;;;;;51.60;37.28;;;10.40;99.90;;;;;;5044649;28;20385;-80
2024/03/21 05:04:19;;;;;;;46.35;33.80;;;10.40;99.90;;;;;;5042289;28;20032;-81
2024/03/21 05:06:45;;;;;;;50.75;38.03;;;10.30;99.90;;;;;;5045187;28;20075;-80
2024/03/21 05:09:11;;;;;;;43.72;35.90;;;10.20;99.90;;;;;;5023953;28;20033;-80
2024/03/21 05:11:36;;;;;;;49.05;35.53;;;10.10;99.90;;;;;;5045222;28;20032;-80
2024/03/21 05:14:02;;;;;;;48.25;37.38;;;10.10;99.90;;;;;;5041965;28;20548;-80
2024/03/21 05:16:30;;;;;;;49.33;37.88;;;10.10;99.90;;;;;;5044526;28;20065;-80
2024/03/21 05:18:56;;;;;;;51.28;37.67;;;10.20;99.90;;;;;;5033359;28;20048;-80
2024/03/21 05:21:22;;;;;;;51.35;36.65;;;10.30;99.90;;;;;;5032798;28;20116;-80
2024/03/21 05:23:50;;;;;;;50.00;37.47;;;10.30;99.90;;;;;;5034171;28;20496;-81
2024/03/21 05:26:16;;;;;;;48.63;37.42;;;10.30;99.90;;;;;;5042739;28;20071;-80
2024/03/21 05:28:42;;;;;;;43.70;34.88;;;10.30;99.90;;;;;;5043161;28;20026;-80
2024/03/21 05:31:20;;;;;;;52.35;37.28;;;10.30;99.90;;;;;;5044771;28;20033;-80
2024/03/21 05:33:47;;;;;;;46.35;35.17;;;10.30;99.90;;;;;;5034698;28;20059;-80
2024/03/21 05:36:13;;;;;;;52.50;37.28;;;10.30;99.90;;;;;;5027272;28;20040;-80
2024/03/21 05:38:39;;;;;;;51.33;37.78;;;10.30;99.90;;;;;;5040674;28;20033;-80
2024/03/21 05:41:06;;;;;;;47.67;36.58;;;10.30;99.90;;;;;;5042343;28;20029;-80
2024/03/21 05:43:32;;;;;;;51.85;39.22;;;10.20;99.90;;;;;;5033573;28;20112;-80
2024/03/21 05:45:57;;;;;;;48.30;36.33;;;10.20;99.90;;;;;;5033242;28;20022;-80
2024/03/21 05:48:23;;;;;;;47.00;35.85;;;10.20;99.90;;;;;;5033301;28;20025;-80
2024/03/21 05:50:49;;;;;;;42.25;33.05;;;10.30;99.90;;;;;;5041882;28;20044;-80
2024/03/21 05:53:15;;;;;;;50.53;37.13;;;10.10;99.90;;;;;;5034096;28;20123;-80
2024/03/21 05:55:42;;;;;;;49.47;36.88;;;10.10;99.90;;;;;;5041238;28;20029;-80
2024/03/21 05:58:08;;;;;;;48.40;37.95;;;10.10;99.90;;;;;;5034437;28;20396;-80
2024/03/21 06:00:34;;;;;;;49.35;36.03;;;10.10;99.90;;;;;;5040377;28;20033;-80
2024/03/21 06:03:00;;;;;;;54.08;39.30;;;10.20;99.90;;;;;;5026201;28;20537;-80
2024/03/21 06:05:26;;;;;;;60.20;41.83;;;10.20;99.90;;;;;;5040479;28;20022;-80
2024/03/21 06:07:51;;;;;;;56.42;39.45;;;10.10;99.90;;;;;;5043071;28;20104;-80
2024/03/21 06:10:17;;;;;;;53.25;39.30;;;10.20;99.90;;;;;;5039413;28;20132;-80
2024/03/21 06:12:43;;;;;;;54.85;38.00;;;10.30;99.90;;;;;;5029984;28;20024;-80
2024/03/21 06:15:09;;;;;;;55.50;39.83;;;10.30;99.90;;;;;;5039643;28;20033;-80
2024/03/21 06:17:34;;;;;;;48.85;37.88;;;10.30;99.90;;;;;;5041876;28;20032;-80
2024/03/21 06:20:00;;;;;;;54.10;35.72;;;10.40;99.90;;;;;;5030845;28;20123;-80
2024/03/21 06:22:26;;;;;;;46.25;36.03;;;10.40;99.90;;;;;;5021157;28;20033;-80
2024/03/21 06:24:52;;;;;;;46.78;36.22;;;10.50;99.90;;;;;;5042088;28;20362;-80
2024/03/21 06:27:17;;;;;;;54.05;37.97;;;10.50;99.90;;;;;;5034015;28;20454;-78
2024/03/21 06:29:43;;;;;;;47.33;34.72;;;10.50;99.90;;;;;;5040226;28;20036;-78
2024/03/21 06:32:09;;;;;;;50.85;38.70;;;10.60;99.90;;;;;;5043754;28;20056;-81
2024/03/21 06:34:42;;;;;;;52.97;38.97;;;10.60;99.90;;;;;;5026735;28;20025;-81
2024/03/21 06:37:08;;;;;;;50.45;37.25;;;10.70;99.90;;;;;;5022255;28;20033;-77
2024/03/21 06:39:34;;;;;;;51.55;38.22;;;10.70;99.90;;;;;;5033897;28;20032;-78
2024/03/21 06:41:59;;;;;;;51.22;37.53;;;10.80;99.90;;;;;;5030765;28;20028;-78
2024/03/21 06:44:25;;;;;;;45.38;35.58;;;10.80;99.90;;;;;;5025099;28;20124;-80
2024/03/21 06:46:51;;;;;;;44.50;34.42;;;10.90;99.90;;;;;;5040991;28;20021;-80
2024/03/21 06:49:16;;;;;;;51.80;37.60;;;10.90;99.90;;;;;;5043789;28;20037;-80
2024/03/21 06:51:42;;;;;;;49.03;37.78;;;11.00;99.90;;;;;;5023872;28;20031;-81
2024/03/21 06:54:09;;;;;;;49.50;36.08;;;11.00;99.90;;;;;;5042020;28;20021;-81
2024/03/21 06:56:35;;;;;;;54.83;39.10;;;11.10;99.90;;;;;;5041056;28;20018;-78
2024/03/21 06:59:00;;;;;;;61.92;44.75;;;11.20;99.90;;;;;;5042421;28;20377;-78
2024/03/21 07:01:26;;;;;;;64.53;45.22;;;11.20;99.90;;;;;;5019185;28;20030;-78
2024/03/21 07:03:53;;;;;;;65.32;45.15;;;11.20;99.90;;;;;;5040051;28;20436;-78
2024/03/21 07:06:19;;;;;;;63.78;42.97;;;11.30;99.90;;;;;;5043127;28;20103;-78
2024/03/21 07:08:44;;;;;;;55.65;40.85;;;11.30;99.90;;;;;;5030222;28;20168;-81
2024/03/21 07:11:10;;;;;;;54.50;41.13;;;11.40;99.90;;;;;;5042892;28;20468;-80
2024/03/21 07:13:36;;;;;;;62.88;42.30;;;11.40;99.90;;;;;;5030494;28;20033;-80
2024/03/21 07:16:01;;;;;;;59.50;42.95;;;11.40;99.90;;;;;;5042299;28;20478;-81
2024/03/21 07:18:27;;;;;;;60.00;44.28;;;11.50;99.90;;;;;;5031030;28;20075;-80
2024/03/21 07:20:56;;;;;;;65.03;45.15;;;11.60;99.90;;;;;;5041163;28;20029;-80
2024/03/21 07:23:22;;;;;;;67.93;47.42;;;11.60;99.90;;;;;;5031423;28;20043;-80
2024/03/21 07:25:48;;;;;;;61.13;44.50;;;11.70;99.90;;;;;;5023448;28;20473;-80
2024/03/21 07:28:13;;;;;;;68.22;46.83;;;11.70;99.90;;;;;;5045309;28;20018;-80
2024/03/21 07:30:39;;;;;;;67.35;49.40;;;11.70;99.90;;;;;;5046163;28;20095;-80
2024/03/21 07:33:05;;;;;;;64.00;46.17;;;11.80;99.90;;;;;;5034782;28;20025;-81
2024/03/21 07:35:30;;;;;;;67.68;49.75;;;11.90;99.90;;;;;;5046889;28;20029;-80
2024/03/21 07:37:56;;;;;;;66.00;46.38;;;11.90;99.90;;;;;;5047020;28;20031;-80
2024/03/21 07:40:22;;;;;;;67.68;48.20;;;11.90;99.90;;;;;;5043199;28;20082;-80
2024/03/21 07:42:48;;;;;;;68.82;49.28;;;12.00;99.90;;;;;;5046573;28;20024;-79
2024/03/21 07:45:13;;;;;;;64.07;47.88;;;12.00;99.90;;;;;;5043878;28;20018;-80
2024/03/21 07:47:40;;;;;;;63.35;46.47;;;12.10;99.90;;;;;;5049568;28;20083;-80
2024/03/21 07:50:06;;;;;;;66.50;49.88;;;12.10;99.90;;;;;;5035914;28;20046;-80
2024/03/21 07:52:32;;;;;;;62.53;47.35;;;12.10;99.90;;;;;;5035704;28;20175;-80
2024/03/21 07:54:58;;;;;;;63.47;47.75;;;12.20;99.90;;;;;;5027009;28;20108;-80
2024/03/21 07:57:23;;;;;;;64.22;45.90;;;12.30;99.90;;;;;;5044632;28;20037;-80
2024/03/21 07:59:49;;;;;;;67.97;44.30;;;12.20;99.90;;;;;;5035849;28;20032;-80
2024/03/21 08:02:15;;;;;;;64.78;45.92;;;12.30;99.90;;;;;;5022587;28;20493;-80
2024/03/21 08:04:41;;;;;;;63.25;42.40;;;12.30;99.90;;;;;;5043393;28;20017;-80
2024/03/21 08:07:07;;;;;;;59.55;41.78;;;12.40;99.90;;;;;;5046355;28;20331;-80
2024/03/21 08:09:32;;;;;;;66.38;43.53;;;12.40;99.90;;;;;;5046811;28;20064;-80
2024/03/21 08:11:58;;;;;;;59.92;43.08;;;12.40;99.90;;;;;;5042875;28;20024;-80
2024/03/21 08:14:24;;;;;;;62.67;41.97;;;12.50;99.90;;;;;;5045894;28;20439;-80
2024/03/21 08:16:50;;;;;;;65.25;44.42;;;12.50;99.90;;;;;;5025625;28;20083;-80
2024/03/21 08:19:15;;;;;;;61.88;44.25;;;12.50;99.90;;;;;;5029002;28;20074;-80
2024/03/21 08:21:41;;;;;;;65.57;45.45;;;12.60;99.90;;;;;;5044890;28;20048;-81
2024/03/21 08:24:07;;;;;;;66.32;46.97;;;12.60;99.90;;;;;;5044461;28;20552;-80
2024/03/21 08:26:35;;;;;;;69.25;45.40;;;12.70;99.90;;;;;;5022846;28;20018;-80
2024/03/21 08:29:04;;;;;;;61.20;46.35;;;12.70;99.90;;;;;;5047751;28;20068;-80
2024/03/21 08:31:29;;;;;;;64.65;47.25;;;12.70;99.90;;;;;;5044465;28;20025;-80
2024/03/21 08:33:55;;;;;;;61.95;44.65;;;12.80;99.90;;;;;;5022539;28;20030;-80
2024/03/21 08:36:21;;;;;;;66.65;45.03;;;12.80;99.90;;;;;;5025179;28;20393;-80
2024/03/21 08:38:47;;;;;;;68.35;44.08;;;12.90;99.90;;;;;;5035314;28;20025;-80
2024/03/21 08:41:12;;;;;;;71.32;44.03;;;12.90;99.90;;;;;;5024601;28;20028;-80
2024/03/21 08:43:38;;;;;;;71.43;43.42;;;13.00;99.90;;;;;;5045881;28;20484;-80
2024/03/21 08:46:04;;;;;;;62.28;45.47;;;13.00;99.90;;;;;;5042169;28;20041;-80
2024/03/21 08:48:32;;;;;;;67.88;46.10;;;13.00;99.90;;;;;;5026171;28;20381;-80
2024/03/21 08:50:58;;;;;;;67.85;45.80;;;13.10;99.90;;;;;;5024035;28;20504;-80
2024/03/21 08:53:24;;;;;;;63.30;45.00;;;13.10;99.90;;;;;;5042076;28;20065;-80
2024/03/21 08:55:49;;;;;;;71.57;51.20;;;13.20;99.90;;;;;;5044455;28;20029;-78
2024/03/21 08:58:15;;;;;;;64.55;45.97;;;13.20;99.90;;;;;;5033532;28;20139;-78
2024/03/21 09:00:41;;;;;;;67.43;50.95;;;13.30;99.90;;;;;;5043604;28;20033;-79
2024/03/21 09:03:09;;;;;;;69.88;48.17;;;13.40;99.90;;;;;;5045591;28;20009;-78
2024/03/21 09:05:35;;;;;;;67.88;45.35;;;13.40;99.90;;;;;;5043925;28;20032;-78
2024/03/21 09:08:01;;;;;;;71.78;48.70;;;13.40;99.90;;;;;;5042768;28;20021;-78
2024/03/21 09:10:28;;;;;;;76.30;45.35;;;13.50;99.90;;;;;;5034680;28;20032;-78
2024/03/21 09:12:54;;;;;;;66.70;44.85;;;13.50;99.90;;;;;;5024494;28;20396;-78
2024/03/21 09:15:20;;;;;;;66.80;46.83;;;13.60;99.90;;;;;;5044789;28;20021;-78
2024/03/21 09:17:46;;;;;;;66.57;46.40;;;13.60;99.90;;;;;;5035284;28;20393;-78
2024/03/21 09:20:12;;;;;;;70.97;49.63;;;13.60;99.70;;;;;;5044930;28;20029;-79
2024/03/21 09:22:39;;;;;;;71.05;48.92;;;13.60;99.90;;;;;;5044229;28;20402;-78
2024/03/21 09:25:05;;;;;;;68.50;48.92;;;13.60;99.90;;;;;;5032151;28;20075;-78
2024/03/21 09:27:31;;;;;;;66.57;44.20;;;13.70;99.90;;;;;;5026513;28;20048;-78
2024/03/21 09:29:57;;;;;;;68.57;43.95;;;13.90;99.90;;;;;;5042163;28;20056;-78
2024/03/21 09:32:26;;;;;;;69.95;43.78;;;13.80;99.10;;;;;;5043617;28;20135;-78
2024/03/21 09:34:52;;;;;;;63.97;43.33;;;13.90;99.90;;;;;;5032716;28;20087;-78
2024/03/21 09:37:19;;;;;;;65.80;44.70;;;14.00;99.90;;;;;;5043227;28;20030;-78
2024/03/21 09:39:45;;;;;;;70.00;44.33;;;14.10;94.40;;;;;;5032988;28;20538;-78
2024/03/21 09:42:17;;;;;;;67.28;44.55;;;14.10;95.10;;;;;;5042567;28;20072;-78
2024/03/21 09:44:48;;;;;;;;;;;14.10;99.30;;;;;;5042733;28;20025;-78
2024/03/21 09:47:19;;;;;;;71.57;50.70;;;14.20;99.00;;;;;;5040989;28;19905;-78
2024/03/21 09:49:49;;;;;;;67.80;46.70;;;14.30;82.60;;;;;;5048542;28;20046;-78
2024/03/21 09:52:15;;;;;;;75.97;47.40;;;14.40;99.90;;;;;;5031528;28;20026;-78
2024/03/21 09:54:41;;;;;;;64.78;43.03;;;14.50;78.40;;;;;;5043657;28;20032;-78
2024/03/21 09:57:14;;;;;;;69.47;47.03;;;14.50;91.60;;;;;;5040328;28;20060;-78
2024/03/21 09:59:40;;;;;;;68.88;44.95;;;14.50;65.80;;;;;;5041094;28;20083;-78
2024/03/21 10:02:13;;;;;;;68.10;44.70;;;14.60;91.80;;;;;;5043407;28;20065;-78
2024/03/21 10:04:46;;;;;;;67.95;43.45;;;14.50;57.50;;;;;;5031097;28;20026;-78
2024/03/21 10:07:22;;;;;;;70.40;44.17;;;14.50;66.70;;;;;;5040634;28;20025;-78
2024/03/21 10:09:55;;;;;;;64.20;45.47;;;14.50;60.20;;;;;;5033109;28;20066;-78
2024/03/21 10:12:22;;;;;;;70.15;43.80;;;14.60;90.80;;;;;;5042292;28;20507;-79
2024/03/21 10:14:51;;;;;;;70.13;43.08;;;14.70;98.80;;;;;;5042337;28;20112;-78
2024/03/21 10:17:17;;;;;;;64.25;43.03;;;14.90;90.30;;;;;;5042157;28;20025;-78
2024/03/21 10:19:42;;;;;;;64.68;43.28;;;15.00;94.20;;;;;;5044010;28;20033;-78
2024/03/21 10:22:16;;;;;;;64.93;43.50;;;15.20;88.80;;;;;;5043633;28;20021;-78
2024/03/21 10:24:41;;;;;;;67.65;41.72;;;15.30;61.90;;;;;;5044008;28;20385;-78
2024/03/21 10:27:13;;;;;;;71.63;42.70;;;15.30;14.90;;;;;;5042438;28;20021;-75
2024/03/21 10:29:39;;;;;;;65.97;43.25;;;15.30;24.60;;;;;;5024222;28;20036;-78
2024/03/21 10:32:11;;;;;;;65.30;42.13;;;15.30;35.00;;;;;;5032357;28;20116;-78
2024/03/21 10:34:38;;;;;;;;;;;15.30;42.90;;;;;;5042686;28;20542;-78
2024/03/21 10:37:06;;;;;;;68.63;42.83;;;15.40;45.60;;;;;;5041821;28;19959;-76
2024/03/21 10:39:32;;;;;;;63.75;41.30;;;15.30;31.40;;;;;;5041833;28;20021;-76
2024/03/21 10:42:00;;;;;;;63.30;40.97;;;15.30;32.90;;;;;;5024183;28;20123;-75
2024/03/21 10:44:26;;;;;;;66.72;41.97;;;15.30;48.20;;;;;;5032109;28;20221;-76
2024/03/21 10:46:52;;;;;;;66.45;42.92;;;15.40;54.20;;;;;;5033904;28;20068;-76
2024/03/21 10:49:17;;;;;;;64.03;42.55;;;15.40;39.20;;;;;;5027087;28;20068;-76
2024/03/21 10:51:47;;;;;;;84.20;44.55;;;15.50;52.90;;;;;;5040120;28;20469;-75
2024/03/21 10:54:13;;;;;;;65.07;43.47;;;15.60;33.40;;;;;;5024920;28;20025;-76
2024/03/21 10:56:41;;;;;;;63.90;42.28;;;15.60;26.80;;;;;;5040297;28;20436;-75
2024/03/21 10:59:12;;;;;;;64.10;43.17;;;15.60;37.10;;;;;;5043088;28;20032;-76
2024/03/21 11:01:40;;;;;;;70.68;44.50;;;15.70;54.70;;;;;;5043673;28;20100;-75
2024/03/21 11:04:17;;;;;;;66.85;43.20;;;15.80;41.80;;;;;;5032745;28;20025;-76
2024/03/21 11:06:45;;;;;;;70.75;44.25;;;15.80;12.10;;;;;;5041630;28;20028;-76
2024/03/21 11:09:14;;;;;;;70.30;44.00;;;15.70;20.90;;;;;;5041356;28;20021;-75
2024/03/21 11:11:40;;;;;;;69.95;44.20;;;15.80;48.80;;;;;;5041582;28;20052;-76
2024/03/21 11:14:09;;;;;;;71.45;44.30;;;15.80;16.60;;;;;;5041415;28;20056;-76
2024/03/21 11:16:40;;;;;;;71.22;46.33;;;15.70;13.70;;;;;;5041161;28;20048;-75
2024/03/21 11:19:06;;;;;;;71.43;45.28;;;15.80;36.00;;;;;;5032077;28;20457;-76
2024/03/21 11:21:32;;;;;;;66.60;44.55;;;15.80;40.60;;;;;;5042639;28;20481;-75
2024/03/21 11:23:58;;;;;;;65.82;41.58;;;15.90;37.20;;;;;;5041116;28;20022;-75
2024/03/21 11:26:24;;;;;;;63.38;43.40;;;15.90;27.30;;;;;;5032177;28;20048;-76
2024/03/21 11:28:50;;;;;;;68.93;42.05;;;16.00;23.50;;;;;;5040313;28;20018;-76
2024/03/21 11:31:23;;;;;;;65.50;43.78;;;16.10;15.90;;;;;;5042409;28;20103;-76
2024/03/21 11:33:50;;;;;;;67.30;43.20;;;16.20;16.70;;;;;;5043218;28;20035;-76
2024/03/21 11:36:18;;;;;;;65.20;41.22;;;16.40;32.60;;;;;;5038932;28;20112;-76
2024/03/21 11:38:44;;;;;;;66.72;44.00;;;16.50;25.00;;;;;;5042033;28;20052;-75
2024/03/21 11:41:19;;;;;;;68.93;43.58;;;16.60;1.00;;;;;;5030541;28;20022;-76
2024/03/21 11:43:55;;;;;;;66.75;41.85;;;16.70;1.00;;;;;;5041120;28;20025;-75
2024/03/21 11:46:23;;;;;;;63.15;42.22;;;16.60;1.00;;;;;;5041844;28;20132;-75
2024/03/21 11:49:06;;;;;;;71.05;44.53;;;16.70;27.30;;;;;;5031289;28;20131;-76
2024/03/21 11:51:33;;;;;;;68.00;43.53;;;16.80;1.00;;;;;;5021777;28;20378;-75
2024/03/21 11:54:03;;;;;;;74.05;45.78;;;16.80;1.00;;;;;;5042271;28;20017;-75
2024/03/21 11:56:33;;;;;;;64.82;43.22;;;16.80;2.10;;;;;;5040095;28;20449;-75
2024/03/21 11:59:03;;;;;;;63.90;42.85;;;16.90;8.20;;;;;;5038700;28;20010;-75
2024/03/21 12:01:29;;;;;;;73.57;45.00;;;17.00;20.80;;;;;;5041539;28;20249;-75
2024/03/21 12:03:55;;;;;;;64.68;42.17;;;17.10;1.00;;;;;;5039981;28;20053;-75
2024/03/21 12:06:20;;;;;;;69.22;45.22;;;17.10;1.00;;;;;;5042089;28;20064;-75
2024/03/21 12:08:51;;;;;;;70.95;45.95;;;17.30;5.00;;;;;;5039167;28;20018;-75
2024/03/21 12:11:18;;;;;;;70.10;45.38;;;17.60;1.00;;;;;;5042654;28;20033;-75
2024/03/21 12:13:45;;;;;;;78.30;47.63;;;17.70;1.00;;;;;;5043804;28;20104;-75
2024/03/21 12:16:21;;;;;;;75.47;47.15;;;17.80;1.00;;;;;;5043424;28;20034;-75
2024/03/21 12:18:47;;;;;;;73.00;43.83;;;17.90;1.00;;;;;;5044382;28;20024;-75
2024/03/21 12:21:18;;;;;;;72.05;43.92;;;18.00;1.00;;;;;;5045199;28;20021;-75
2024/03/21 12:23:47;;;;;;;64.13;41.75;;;18.20;99.90;;;;;;5034327;28;20021;-75
2024/03/21 12:26:14;;;;;;;72.20;45.10;;;18.30;99.90;;;;;;5044800;28;20473;-75
2024/03/21 12:28:40;;;;;;;71.25;44.67;;;18.30;99.90;;;;;;5043619;28;20025;-75